sensor_id;sensor_type;location;lat;lon;timestamp;P1;durP1;ratioP1;P2;durP2;ratioP2
56075;SDS011;41951;49.022;12.066;2023-07-09T00:02:19;8.80;;;5.25;;
56075;SDS011;41951;49.022;12.066;2023-07-09T00:04:46;10.77;;;6.10;;
56075;SDS011;41951;49.022;12.066;2023-07-09T00:07:15;11.20;;;6.25;;
56075;SDS011;41951;49.022;12.066;2023-07-09T00:09:49;10.63;;;6.65;;
56075;SDS011;41951;49.022;12.066;2023-07-09T00:12:15;9.52;;;6.50;;
56075;SDS011;41951;49.022;12.066;2023-07-09T00:14:42;10.10;;;6.45;;
56075;SDS011;41951;49.022;12.066;2023-07-09T00:17:27;10.25;;;5.95;;
56075;SDS011;41951;49.022;12.066;2023-07-09T00:19:55;10.80;;;6.63;;
56075;SDS011;41951;49.022;12.066;2023-07-09T00:22:21;8.80;;;5.97;;
56075;SDS011;41951;49.022;12.066;2023-07-09T00:24:48;9.18;;;6.30;;
56075;SDS011;41951;49.022;12.066;2023-07-09T00:27:19;9.82;;;6.28;;
56075;SDS011;41951;49.022;12.066;2023-07-09T00:29:46;9.82;;;5.95;;
56075;SDS011;41951;49.022;12.066;2023-07-09T00:32:17;9.20;;;6.10;;
56075;SDS011;41951;49.022;12.066;2023-07-09T00:34:45;9.63;;;6.45;;
56075;SDS011;41951;49.022;12.066;2023-07-09T00:37:14;15.75;;;6.15;;
56075;SDS011;41951;49.022;12.066;2023-07-09T00:39:44;10.65;;;5.82;;
56075;SDS011;41951;49.022;12.066;2023-07-09T00:42:11;8.98;;;6.28;;
56075;SDS011;41951;49.022;12.066;2023-07-09T00:44:43;9.45;;;5.50;;
56075;SDS011;41951;49.022;12.066;2023-07-09T00:47:31;7.90;;;5.97;;
56075;SDS011;41951;49.022;12.066;2023-07-09T00:50:00;10.70;;;6.53;;
56075;SDS011;41951;49.022;12.066;2023-07-09T00:52:38;10.60;;;6.38;;
56075;SDS011;41951;49.022;12.066;2023-07-09T00:55:12;10.20;;;6.25;;
56075;SDS011;41951;49.022;12.066;2023-07-09T01:00:09;12.18;;;6.80;;
56075;SDS011;41951;49.022;12.066;2023-07-09T01:02:38;12.68;;;7.55;;
56075;SDS011;41951;49.022;12.066;2023-07-09T01:05:10;10.15;;;6.13;;
56075;SDS011;41951;49.022;12.066;2023-07-09T01:07:37;11.52;;;7.07;;
56075;SDS011;41951;49.022;12.066;2023-07-09T01:10:03;10.23;;;6.72;;
56075;SDS011;41951;49.022;12.066;2023-07-09T01:12:30;9.98;;;6.90;;
56075;SDS011;41951;49.022;12.066;2023-07-09T01:14:55;10.57;;;7.20;;
56075;SDS011;41951;49.022;12.066;2023-07-09T01:17:24;12.23;;;6.70;;
56075;SDS011;41951;49.022;12.066;2023-07-09T01:19:53;13.07;;;6.25;;
56075;SDS011;41951;49.022;12.066;2023-07-09T01:22:20;10.98;;;6.75;;
56075;SDS011;41951;49.022;12.066;2023-07-09T01:27:15;10.90;;;5.93;;
56075;SDS011;41951;49.022;12.066;2023-07-09T01:29:42;10.40;;;7.25;;
56075;SDS011;41951;49.022;12.066;2023-07-09T01:32:11;11.88;;;7.18;;
56075;SDS011;41951;49.022;12.066;2023-07-09T01:34:38;11.68;;;6.43;;
56075;SDS011;41951;49.022;12.066;2023-07-09T01:37:05;9.82;;;6.70;;
56075;SDS011;41951;49.022;12.066;2023-07-09T01:39:31;9.55;;;6.47;;
56075;SDS011;41951;49.022;12.066;2023-07-09T01:41:57;10.25;;;5.88;;
56075;SDS011;41951;49.022;12.066;2023-07-09T01:44:22;10.55;;;6.82;;
56075;SDS011;41951;49.022;12.066;2023-07-09T01:46:48;11.45;;;6.85;;
56075;SDS011;41951;49.022;12.066;2023-07-09T01:49:14;9.45;;;5.95;;
56075;SDS011;41951;49.022;12.066;2023-07-09T01:51:40;10.75;;;6.50;;
56075;SDS011;41951;49.022;12.066;2023-07-09T01:54:06;10.40;;;6.97;;
56075;SDS011;41951;49.022;12.066;2023-07-09T01:56:31;11.48;;;6.72;;
56075;SDS011;41951;49.022;12.066;2023-07-09T01:58:57;10.20;;;6.50;;
56075;SDS011;41951;49.022;12.066;2023-07-09T02:01:26;10.02;;;6.63;;
56075;SDS011;41951;49.022;12.066;2023-07-09T02:03:55;9.48;;;6.43;;
56075;SDS011;41951;49.022;12.066;2023-07-09T02:06:20;9.73;;;6.30;;
56075;SDS011;41951;49.022;12.066;2023-07-09T02:08:49;9.98;;;6.30;;
56075;SDS011;41951;49.022;12.066;2023-07-09T02:11:14;12.52;;;6.32;;
56075;SDS011;41951;49.022;12.066;2023-07-09T02:13:40;11.15;;;6.60;;
56075;SDS011;41951;49.022;12.066;2023-07-09T02:16:06;8.82;;;5.85;;
56075;SDS011;41951;49.022;12.066;2023-07-09T02:18:31;9.30;;;6.05;;
56075;SDS011;41951;49.022;12.066;2023-07-09T02:20:57;9.80;;;6.30;;
56075;SDS011;41951;49.022;12.066;2023-07-09T02:23:25;9.23;;;6.00;;
56075;SDS011;41951;49.022;12.066;2023-07-09T02:25:52;11.35;;;6.43;;
56075;SDS011;41951;49.022;12.066;2023-07-09T02:28:17;10.68;;;6.38;;
56075;SDS011;41951;49.022;12.066;2023-07-09T02:30:43;11.45;;;6.38;;
56075;SDS011;41951;49.022;12.066;2023-07-09T02:33:08;11.68;;;6.90;;
56075;SDS011;41951;49.022;12.066;2023-07-09T02:35:34;14.10;;;6.65;;
56075;SDS011;41951;49.022;12.066;2023-07-09T02:38:01;11.18;;;6.45;;
56075;SDS011;41951;49.022;12.066;2023-07-09T02:40:26;12.35;;;6.68;;
56075;SDS011;41951;49.022;12.066;2023-07-09T02:42:52;8.75;;;6.28;;
56075;SDS011;41951;49.022;12.066;2023-07-09T02:45:17;8.82;;;6.25;;
56075;SDS011;41951;49.022;12.066;2023-07-09T02:47:43;8.30;;;6.40;;
56075;SDS011;41951;49.022;12.066;2023-07-09T02:50:09;9.48;;;6.80;;
56075;SDS011;41951;49.022;12.066;2023-07-09T02:52:34;10.73;;;6.35;;
56075;SDS011;41951;49.022;12.066;2023-07-09T02:55:00;10.55;;;6.75;;
56075;SDS011;41951;49.022;12.066;2023-07-09T02:57:26;10.05;;;7.50;;
56075;SDS011;41951;49.022;12.066;2023-07-09T02:59:51;10.93;;;7.35;;
56075;SDS011;41951;49.022;12.066;2023-07-09T03:02:17;12.10;;;7.15;;
56075;SDS011;41951;49.022;12.066;2023-07-09T03:04:42;11.05;;;7.32;;
56075;SDS011;41951;49.022;12.066;2023-07-09T03:07:08;10.82;;;7.25;;
56075;SDS011;41951;49.022;12.066;2023-07-09T03:09:33;9.50;;;6.85;;
56075;SDS011;41951;49.022;12.066;2023-07-09T03:11:59;10.13;;;6.60;;
56075;SDS011;41951;49.022;12.066;2023-07-09T03:14:24;12.40;;;6.82;;
56075;SDS011;41951;49.022;12.066;2023-07-09T03:16:50;8.55;;;6.10;;
56075;SDS011;41951;49.022;12.066;2023-07-09T03:19:16;12.65;;;6.93;;
56075;SDS011;41951;49.022;12.066;2023-07-09T03:21:41;9.45;;;6.40;;
56075;SDS011;41951;49.022;12.066;2023-07-09T03:24:07;10.50;;;6.80;;
56075;SDS011;41951;49.022;12.066;2023-07-09T03:26:33;10.27;;;6.85;;
56075;SDS011;41951;49.022;12.066;2023-07-09T03:28:59;10.93;;;6.30;;
56075;SDS011;41951;49.022;12.066;2023-07-09T03:31:25;9.48;;;6.68;;
56075;SDS011;41951;49.022;12.066;2023-07-09T03:33:51;9.38;;;6.30;;
56075;SDS011;41951;49.022;12.066;2023-07-09T03:36:17;12.32;;;7.50;;
56075;SDS011;41951;49.022;12.066;2023-07-09T03:38:44;12.23;;;7.45;;
56075;SDS011;41951;49.022;12.066;2023-07-09T03:41:10;9.25;;;6.97;;
56075;SDS011;41951;49.022;12.066;2023-07-09T03:43:36;14.85;;;8.82;;
56075;SDS011;41951;49.022;12.066;2023-07-09T03:46:01;11.77;;;8.07;;
56075;SDS011;41951;49.022;12.066;2023-07-09T03:48:27;14.10;;;7.97;;
56075;SDS011;41951;49.022;12.066;2023-07-09T03:50:53;11.35;;;7.00;;
56075;SDS011;41951;49.022;12.066;2023-07-09T03:53:18;11.93;;;6.40;;
56075;SDS011;41951;49.022;12.066;2023-07-09T03:55:50;10.90;;;6.40;;
56075;SDS011;41951;49.022;12.066;2023-07-09T03:58:17;10.13;;;6.40;;
56075;SDS011;41951;49.022;12.066;2023-07-09T04:00:43;12.63;;;7.03;;
56075;SDS011;41951;49.022;12.066;2023-07-09T04:03:09;11.77;;;7.00;;
56075;SDS011;41951;49.022;12.066;2023-07-09T04:05:36;12.18;;;7.28;;
56075;SDS011;41951;49.022;12.066;2023-07-09T04:08:02;12.82;;;7.57;;
56075;SDS011;41951;49.022;12.066;2023-07-09T04:10:28;10.50;;;7.10;;
56075;SDS011;41951;49.022;12.066;2023-07-09T04:12:53;12.43;;;8.15;;
56075;SDS011;41951;49.022;12.066;2023-07-09T04:15:19;11.63;;;8.05;;
56075;SDS011;41951;49.022;12.066;2023-07-09T04:17:45;11.30;;;7.47;;
56075;SDS011;41951;49.022;12.066;2023-07-09T04:20:10;14.45;;;7.15;;
56075;SDS011;41951;49.022;12.066;2023-07-09T04:22:38;11.52;;;7.38;;
56075;SDS011;41951;49.022;12.066;2023-07-09T04:25:05;10.63;;;7.18;;
56075;SDS011;41951;49.022;12.066;2023-07-09T04:27:32;12.43;;;8.02;;
56075;SDS011;41951;49.022;12.066;2023-07-09T04:29:59;12.23;;;7.05;;
56075;SDS011;41951;49.022;12.066;2023-07-09T04:32:24;11.45;;;7.50;;
56075;SDS011;41951;49.022;12.066;2023-07-09T04:34:50;15.38;;;8.05;;
56075;SDS011;41951;49.022;12.066;2023-07-09T04:37:16;10.43;;;7.40;;
56075;SDS011;41951;49.022;12.066;2023-07-09T04:39:42;14.70;;;8.27;;
56075;SDS011;41951;49.022;12.066;2023-07-09T04:42:11;10.57;;;7.28;;
56075;SDS011;41951;49.022;12.066;2023-07-09T04:44:39;10.90;;;6.75;;
56075;SDS011;41951;49.022;12.066;2023-07-09T04:47:05;11.68;;;7.90;;
56075;SDS011;41951;49.022;12.066;2023-07-09T04:49:31;10.00;;;7.10;;
56075;SDS011;41951;49.022;12.066;2023-07-09T04:51:57;11.38;;;7.40;;
56075;SDS011;41951;49.022;12.066;2023-07-09T04:54:24;13.02;;;8.32;;
56075;SDS011;41951;49.022;12.066;2023-07-09T04:56:50;14.27;;;7.55;;
56075;SDS011;41951;49.022;12.066;2023-07-09T04:59:15;10.63;;;7.60;;
56075;SDS011;41951;49.022;12.066;2023-07-09T05:01:41;13.45;;;7.85;;
56075;SDS011;41951;49.022;12.066;2023-07-09T05:04:07;13.15;;;7.15;;
56075;SDS011;41951;49.022;12.066;2023-07-09T05:06:35;14.23;;;7.30;;
56075;SDS011;41951;49.022;12.066;2023-07-09T05:09:06;10.80;;;7.43;;
56075;SDS011;41951;49.022;12.066;2023-07-09T05:11:33;11.88;;;8.30;;
56075;SDS011;41951;49.022;12.066;2023-07-09T05:13:59;15.10;;;8.10;;
56075;SDS011;41951;49.022;12.066;2023-07-09T05:16:26;12.82;;;8.10;;
56075;SDS011;41951;49.022;12.066;2023-07-09T05:18:52;12.55;;;8.40;;
56075;SDS011;41951;49.022;12.066;2023-07-09T05:21:21;12.85;;;8.70;;
56075;SDS011;41951;49.022;12.066;2023-07-09T05:23:47;13.40;;;8.55;;
56075;SDS011;41951;49.022;12.066;2023-07-09T05:26:12;12.18;;;8.10;;
56075;SDS011;41951;49.022;12.066;2023-07-09T05:28:38;13.88;;;8.60;;
56075;SDS011;41951;49.022;12.066;2023-07-09T05:31:04;13.55;;;8.98;;
56075;SDS011;41951;49.022;12.066;2023-07-09T05:33:30;12.55;;;8.77;;
56075;SDS011;41951;49.022;12.066;2023-07-09T05:35:56;13.27;;;7.50;;
56075;SDS011;41951;49.022;12.066;2023-07-09T05:38:21;10.23;;;7.63;;
56075;SDS011;41951;49.022;12.066;2023-07-09T05:40:47;12.93;;;8.23;;
56075;SDS011;41951;49.022;12.066;2023-07-09T05:43:13;13.90;;;8.95;;
56075;SDS011;41951;49.022;12.066;2023-07-09T05:45:39;14.50;;;7.60;;
56075;SDS011;41951;49.022;12.066;2023-07-09T05:48:05;13.18;;;8.10;;
56075;SDS011;41951;49.022;12.066;2023-07-09T05:50:32;11.63;;;7.75;;
56075;SDS011;41951;49.022;12.066;2023-07-09T05:52:59;11.18;;;7.55;;
56075;SDS011;41951;49.022;12.066;2023-07-09T05:55:25;12.25;;;7.13;;
56075;SDS011;41951;49.022;12.066;2023-07-09T05:57:51;11.95;;;7.60;;
56075;SDS011;41951;49.022;12.066;2023-07-09T06:00:18;9.05;;;6.90;;
56075;SDS011;41951;49.022;12.066;2023-07-09T06:02:43;10.90;;;6.70;;
56075;SDS011;41951;49.022;12.066;2023-07-09T06:05:09;10.70;;;6.97;;
56075;SDS011;41951;49.022;12.066;2023-07-09T06:07:36;10.93;;;7.03;;
56075;SDS011;41951;49.022;12.066;2023-07-09T06:10:02;11.27;;;7.28;;
56075;SDS011;41951;49.022;12.066;2023-07-09T06:12:28;20.95;;;12.90;;
56075;SDS011;41951;49.022;12.066;2023-07-09T06:14:53;18.58;;;13.95;;
56075;SDS011;41951;49.022;12.066;2023-07-09T06:17:19;21.98;;;15.43;;
56075;SDS011;41951;49.022;12.066;2023-07-09T06:19:45;12.52;;;7.72;;
56075;SDS011;41951;49.022;12.066;2023-07-09T06:22:10;12.18;;;6.85;;
56075;SDS011;41951;49.022;12.066;2023-07-09T06:24:36;9.00;;;6.60;;
56075;SDS011;41951;49.022;12.066;2023-07-09T06:27:01;8.73;;;6.43;;
56075;SDS011;41951;49.022;12.066;2023-07-09T06:29:27;9.52;;;6.90;;
56075;SDS011;41951;49.022;12.066;2023-07-09T06:31:53;21.35;;;13.30;;
56075;SDS011;41951;49.022;12.066;2023-07-09T06:34:19;21.00;;;13.85;;
56075;SDS011;41951;49.022;12.066;2023-07-09T06:36:44;23.17;;;16.75;;
56075;SDS011;41951;49.022;12.066;2023-07-09T06:39:10;11.60;;;7.80;;
56075;SDS011;41951;49.022;12.066;2023-07-09T06:41:36;10.18;;;6.70;;
56075;SDS011;41951;49.022;12.066;2023-07-09T06:44:07;13.13;;;6.72;;
56075;SDS011;41951;49.022;12.066;2023-07-09T06:46:34;8.30;;;5.88;;
56075;SDS011;41951;49.022;12.066;2023-07-09T06:49:01;8.73;;;5.57;;
56075;SDS011;41951;49.022;12.066;2023-07-09T06:51:27;9.27;;;5.82;;
56075;SDS011;41951;49.022;12.066;2023-07-09T06:53:53;9.68;;;5.68;;
56075;SDS011;41951;49.022;12.066;2023-07-09T06:56:19;9.27;;;5.80;;
56075;SDS011;41951;49.022;12.066;2023-07-09T06:58:45;9.63;;;6.03;;
56075;SDS011;41951;49.022;12.066;2023-07-09T07:01:11;11.20;;;6.05;;
56075;SDS011;41951;49.022;12.066;2023-07-09T07:03:37;8.70;;;5.53;;
56075;SDS011;41951;49.022;12.066;2023-07-09T07:06:06;7.90;;;5.45;;
56075;SDS011;41951;49.022;12.066;2023-07-09T07:08:41;9.68;;;5.60;;
56075;SDS011;41951;49.022;12.066;2023-07-09T07:11:07;9.82;;;5.95;;
56075;SDS011;41951;49.022;12.066;2023-07-09T07:13:36;7.80;;;5.70;;
56075;SDS011;41951;49.022;12.066;2023-07-09T07:16:07;9.05;;;5.63;;
56075;SDS011;41951;49.022;12.066;2023-07-09T07:18:34;8.73;;;5.60;;
56075;SDS011;41951;49.022;12.066;2023-07-09T07:21:00;7.53;;;5.55;;
56075;SDS011;41951;49.022;12.066;2023-07-09T07:23:27;8.65;;;5.50;;
56075;SDS011;41951;49.022;12.066;2023-07-09T07:25:52;7.75;;;5.40;;
56075;SDS011;41951;49.022;12.066;2023-07-09T07:28:19;10.63;;;5.25;;
56075;SDS011;41951;49.022;12.066;2023-07-09T07:30:45;10.05;;;5.45;;
56075;SDS011;41951;49.022;12.066;2023-07-09T07:33:13;7.75;;;5.35;;
56075;SDS011;41951;49.022;12.066;2023-07-09T07:35:39;9.20;;;5.97;;
56075;SDS011;41951;49.022;12.066;2023-07-09T07:38:04;11.85;;;5.63;;
56075;SDS011;41951;49.022;12.066;2023-07-09T07:40:31;9.57;;;6.22;;
56075;SDS011;41951;49.022;12.066;2023-07-09T07:42:57;8.02;;;5.53;;
56075;SDS011;41951;49.022;12.066;2023-07-09T07:45:26;11.45;;;8.30;;
56075;SDS011;41951;49.022;12.066;2023-07-09T07:47:51;12.82;;;7.30;;
56075;SDS011;41951;49.022;12.066;2023-07-09T07:50:19;8.43;;;5.60;;
56075;SDS011;41951;49.022;12.066;2023-07-09T07:52:48;9.07;;;5.07;;
56075;SDS011;41951;49.022;12.066;2023-07-09T07:55:15;10.57;;;5.70;;
56075;SDS011;41951;49.022;12.066;2023-07-09T07:57:41;9.05;;;5.32;;
56075;SDS011;41951;49.022;12.066;2023-07-09T08:00:07;27.48;;;19.25;;
56075;SDS011;41951;49.022;12.066;2023-07-09T08:02:34;9.15;;;6.05;;
56075;SDS011;41951;49.022;12.066;2023-07-09T08:04:59;7.97;;;5.75;;
56075;SDS011;41951;49.022;12.066;2023-07-09T08:07:25;10.77;;;5.97;;
56075;SDS011;41951;49.022;12.066;2023-07-09T08:09:51;11.38;;;6.47;;
56075;SDS011;41951;49.022;12.066;2023-07-09T08:12:17;12.63;;;8.10;;
56075;SDS011;41951;49.022;12.066;2023-07-09T08:14:44;14.73;;;6.80;;
56075;SDS011;41951;49.022;12.066;2023-07-09T08:17:11;12.10;;;6.57;;
56075;SDS011;41951;49.022;12.066;2023-07-09T08:19:44;8.35;;;5.20;;
56075;SDS011;41951;49.022;12.066;2023-07-09T08:22:18;8.10;;;5.28;;
56075;SDS011;41951;49.022;12.066;2023-07-09T08:24:45;9.55;;;5.35;;
56075;SDS011;41951;49.022;12.066;2023-07-09T08:27:11;8.23;;;5.30;;
56075;SDS011;41951;49.022;12.066;2023-07-09T08:29:37;8.45;;;5.63;;
56075;SDS011;41951;49.022;12.066;2023-07-09T08:32:03;10.38;;;5.60;;
56075;SDS011;41951;49.022;12.066;2023-07-09T08:34:29;7.72;;;5.00;;
56075;SDS011;41951;49.022;12.066;2023-07-09T08:36:54;10.77;;;5.28;;
56075;SDS011;41951;49.022;12.066;2023-07-09T08:39:20;6.22;;;4.65;;
56075;SDS011;41951;49.022;12.066;2023-07-09T08:41:47;8.77;;;5.15;;
56075;SDS011;41951;49.022;12.066;2023-07-09T08:44:26;8.23;;;5.03;;
56075;SDS011;41951;49.022;12.066;2023-07-09T08:49:54;7.25;;;4.70;;
56075;SDS011;41951;49.022;12.066;2023-07-09T08:52:30;9.57;;;5.45;;
56075;SDS011;41951;49.022;12.066;2023-07-09T08:55:02;8.98;;;5.20;;
56075;SDS011;41951;49.022;12.066;2023-07-09T08:57:38;8.65;;;5.53;;
56075;SDS011;41951;49.022;12.066;2023-07-09T09:00:22;7.18;;;4.60;;
56075;SDS011;41951;49.022;12.066;2023-07-09T09:03:05;7.70;;;5.32;;
56075;SDS011;41951;49.022;12.066;2023-07-09T09:05:39;10.05;;;5.60;;
56075;SDS011;41951;49.022;12.066;2023-07-09T09:08:22;8.57;;;5.38;;
56075;SDS011;41951;49.022;12.066;2023-07-09T09:13:55;7.75;;;4.97;;
56075;SDS011;41951;49.022;12.066;2023-07-09T09:16:25;9.27;;;5.25;;
56075;SDS011;41951;49.022;12.066;2023-07-09T09:18:57;7.72;;;4.72;;
56075;SDS011;41951;49.022;12.066;2023-07-09T09:21:34;8.73;;;5.32;;
56075;SDS011;41951;49.022;12.066;2023-07-09T09:24:10;7.50;;;5.00;;
56075;SDS011;41951;49.022;12.066;2023-07-09T09:26:51;9.82;;;5.13;;
56075;SDS011;41951;49.022;12.066;2023-07-09T09:29:23;7.50;;;4.85;;
56075;SDS011;41951;49.022;12.066;2023-07-09T09:31:50;8.85;;;5.13;;
56075;SDS011;41951;49.022;12.066;2023-07-09T09:34:21;7.60;;;4.88;;
56075;SDS011;41951;49.022;12.066;2023-07-09T09:39:16;7.53;;;4.57;;
56075;SDS011;41951;49.022;12.066;2023-07-09T09:41:45;13.85;;;9.45;;
56075;SDS011;41951;49.022;12.066;2023-07-09T09:44:17;7.55;;;5.05;;
56075;SDS011;41951;49.022;12.066;2023-07-09T09:46:44;6.75;;;4.82;;
56075;SDS011;41951;49.022;12.066;2023-07-09T09:49:10;8.77;;;4.85;;
56075;SDS011;41951;49.022;12.066;2023-07-09T09:51:43;6.97;;;4.70;;
56075;SDS011;41951;49.022;12.066;2023-07-09T09:54:16;9.10;;;4.63;;
56075;SDS011;41951;49.022;12.066;2023-07-09T09:56:50;6.53;;;4.40;;
56075;SDS011;41951;49.022;12.066;2023-07-09T09:59:21;8.15;;;4.55;;
56075;SDS011;41951;49.022;12.066;2023-07-09T10:02:02;6.32;;;4.50;;
56075;SDS011;41951;49.022;12.066;2023-07-09T10:04:38;7.07;;;4.13;;
56075;SDS011;41951;49.022;12.066;2023-07-09T10:07:05;6.47;;;4.07;;
56075;SDS011;41951;49.022;12.066;2023-07-09T10:15:01;10.25;;;5.78;;
56075;SDS011;41951;49.022;12.066;2023-07-09T10:17:35;10.23;;;4.40;;
56075;SDS011;41951;49.022;12.066;2023-07-09T10:26:02;7.45;;;4.57;;
56075;SDS011;41951;49.022;12.066;2023-07-09T10:31:35;7.60;;;4.55;;
56075;SDS011;41951;49.022;12.066;2023-07-09T10:34:25;5.45;;;3.92;;
56075;SDS011;41951;49.022;12.066;2023-07-09T10:39:52;7.35;;;4.38;;
56075;SDS011;41951;49.022;12.066;2023-07-09T10:42:24;6.72;;;4.28;;
56075;SDS011;41951;49.022;12.066;2023-07-09T10:45:07;9.05;;;4.32;;
56075;SDS011;41951;49.022;12.066;2023-07-09T10:47:38;7.65;;;4.82;;
56075;SDS011;41951;49.022;12.066;2023-07-09T10:50:27;6.07;;;4.10;;
56075;SDS011;41951;49.022;12.066;2023-07-09T10:52:57;7.07;;;3.97;;
56075;SDS011;41951;49.022;12.066;2023-07-09T10:55:50;8.60;;;4.13;;
56075;SDS011;41951;49.022;12.066;2023-07-09T10:58:35;8.68;;;4.03;;
56075;SDS011;41951;49.022;12.066;2023-07-09T11:01:21;6.85;;;4.18;;
56075;SDS011;41951;49.022;12.066;2023-07-09T11:03:59;6.32;;;4.32;;
56075;SDS011;41951;49.022;12.066;2023-07-09T11:06:41;6.57;;;4.40;;
56075;SDS011;41951;49.022;12.066;2023-07-09T11:09:14;6.97;;;4.07;;
56075;SDS011;41951;49.022;12.066;2023-07-09T11:11:51;7.07;;;4.00;;
56075;SDS011;41951;49.022;12.066;2023-07-09T11:14:41;6.00;;;4.20;;
56075;SDS011;41951;49.022;12.066;2023-07-09T11:17:26;6.60;;;4.18;;
56075;SDS011;41951;49.022;12.066;2023-07-09T11:19:54;6.30;;;4.22;;
56075;SDS011;41951;49.022;12.066;2023-07-09T11:22:22;6.05;;;3.67;;
56075;SDS011;41951;49.022;12.066;2023-07-09T11:25:06;6.13;;;4.22;;
56075;SDS011;41951;49.022;12.066;2023-07-09T11:27:50;5.18;;;3.42;;
56075;SDS011;41951;49.022;12.066;2023-07-09T11:30:27;5.33;;;3.90;;
56075;SDS011;41951;49.022;12.066;2023-07-09T11:33:45;6.07;;;3.75;;
56075;SDS011;41951;49.022;12.066;2023-07-09T11:35:52;6.68;;;3.88;;
56075;SDS011;41951;49.022;12.066;2023-07-09T11:38:36;3.92;;;2.92;;
56075;SDS011;41951;49.022;12.066;2023-07-09T11:41:27;8.02;;;4.43;;
56075;SDS011;41951;49.022;12.066;2023-07-09T11:46:40;7.65;;;5.13;;
56075;SDS011;41951;49.022;12.066;2023-07-09T11:49:26;19.17;;;14.70;;
56075;SDS011;41951;49.022;12.066;2023-07-09T11:51:59;8.68;;;4.22;;
56075;SDS011;41951;49.022;12.066;2023-07-09T11:54:33;6.95;;;4.32;;
56075;SDS011;41951;49.022;12.066;2023-07-09T11:57:00;7.85;;;4.45;;
56075;SDS011;41951;49.022;12.066;2023-07-09T11:59:27;7.53;;;4.22;;
56075;SDS011;41951;49.022;12.066;2023-07-09T12:01:54;7.70;;;4.00;;
56075;SDS011;41951;49.022;12.066;2023-07-09T12:04:25;6.60;;;4.00;;
56075;SDS011;41951;49.022;12.066;2023-07-09T12:06:57;13.35;;;8.90;;
56075;SDS011;41951;49.022;12.066;2023-07-09T12:09:29;9.00;;;5.10;;
56075;SDS011;41951;49.022;12.066;2023-07-09T12:11:56;11.52;;;8.57;;
56075;SDS011;41951;49.022;12.066;2023-07-09T12:14:22;13.27;;;9.95;;
56075;SDS011;41951;49.022;12.066;2023-07-09T12:16:50;7.97;;;4.00;;
56075;SDS011;41951;49.022;12.066;2023-07-09T12:19:18;6.22;;;4.45;;
56075;SDS011;41951;49.022;12.066;2023-07-09T12:21:46;7.93;;;3.78;;
56075;SDS011;41951;49.022;12.066;2023-07-09T12:26:43;8.20;;;4.22;;
56075;SDS011;41951;49.022;12.066;2023-07-09T12:29:08;7.65;;;3.95;;
56075;SDS011;41951;49.022;12.066;2023-07-09T12:31:35;5.55;;;3.75;;
56075;SDS011;41951;49.022;12.066;2023-07-09T12:34:01;8.85;;;3.97;;
56075;SDS011;41951;49.022;12.066;2023-07-09T12:36:26;6.30;;;3.97;;
56075;SDS011;41951;49.022;12.066;2023-07-09T12:38:55;6.00;;;3.78;;
56075;SDS011;41951;49.022;12.066;2023-07-09T12:41:27;7.93;;;4.47;;
56075;SDS011;41951;49.022;12.066;2023-07-09T12:43:54;8.05;;;4.15;;
56075;SDS011;41951;49.022;12.066;2023-07-09T12:46:21;7.70;;;4.20;;
56075;SDS011;41951;49.022;12.066;2023-07-09T12:48:48;5.93;;;3.60;;
56075;SDS011;41951;49.022;12.066;2023-07-09T12:51:16;8.15;;;4.32;;
56075;SDS011;41951;49.022;12.066;2023-07-09T12:53:46;5.75;;;3.42;;
56075;SDS011;41951;49.022;12.066;2023-07-09T12:56:15;7.35;;;4.10;;
56075;SDS011;41951;49.022;12.066;2023-07-09T12:58:42;5.30;;;3.35;;
56075;SDS011;41951;49.022;12.066;2023-07-09T13:01:16;6.00;;;4.07;;
56075;SDS011;41951;49.022;12.066;2023-07-09T13:03:51;6.15;;;3.80;;
56075;SDS011;41951;49.022;12.066;2023-07-09T13:06:27;6.60;;;4.25;;
56075;SDS011;41951;49.022;12.066;2023-07-09T13:09:00;7.00;;;3.53;;
56075;SDS011;41951;49.022;12.066;2023-07-09T13:11:33;6.57;;;4.03;;
56075;SDS011;41951;49.022;12.066;2023-07-09T13:14:05;7.22;;;3.67;;
56075;SDS011;41951;49.022;12.066;2023-07-09T13:16:40;7.43;;;3.97;;
56075;SDS011;41951;49.022;12.066;2023-07-09T13:19:05;6.70;;;4.05;;
56075;SDS011;41951;49.022;12.066;2023-07-09T13:21:31;9.52;;;5.75;;
56075;SDS011;41951;49.022;12.066;2023-07-09T13:23:57;13.48;;;9.70;;
56075;SDS011;41951;49.022;12.066;2023-07-09T13:26:23;7.88;;;4.03;;
56075;SDS011;41951;49.022;12.066;2023-07-09T13:28:49;7.78;;;3.92;;
56075;SDS011;41951;49.022;12.066;2023-07-09T13:31:17;5.20;;;3.60;;
56075;SDS011;41951;49.022;12.066;2023-07-09T13:33:44;5.75;;;3.50;;
56075;SDS011;41951;49.022;12.066;2023-07-09T13:36:20;5.82;;;3.50;;
56075;SDS011;41951;49.022;12.066;2023-07-09T13:38:46;6.68;;;3.67;;
56075;SDS011;41951;49.022;12.066;2023-07-09T13:41:15;5.97;;;3.65;;
56075;SDS011;41951;49.022;12.066;2023-07-09T13:43:44;5.57;;;3.78;;
56075;SDS011;41951;49.022;12.066;2023-07-09T13:46:12;8.80;;;3.83;;
56075;SDS011;41951;49.022;12.066;2023-07-09T13:48:38;5.72;;;3.80;;
56075;SDS011;41951;49.022;12.066;2023-07-09T13:51:39;7.43;;;3.90;;
56075;SDS011;41951;49.022;12.066;2023-07-09T13:53:57;7.28;;;3.60;;
56075;SDS011;41951;49.022;12.066;2023-07-09T13:56:24;5.47;;;3.60;;
56075;SDS011;41951;49.022;12.066;2023-07-09T13:58:49;8.18;;;4.32;;
56075;SDS011;41951;49.022;12.066;2023-07-09T14:01:18;5.57;;;4.07;;
56075;SDS011;41951;49.022;12.066;2023-07-09T14:03:47;7.43;;;3.80;;
56075;SDS011;41951;49.022;12.066;2023-07-09T14:06:13;5.20;;;3.75;;
56075;SDS011;41951;49.022;12.066;2023-07-09T14:08:40;7.03;;;4.35;;
56075;SDS011;41951;49.022;12.066;2023-07-09T14:11:10;7.07;;;4.03;;
56075;SDS011;41951;49.022;12.066;2023-07-09T14:13:37;6.80;;;4.82;;
56075;SDS011;41951;49.022;12.066;2023-07-09T14:16:03;6.82;;;3.53;;
56075;SDS011;41951;49.022;12.066;2023-07-09T14:18:29;6.00;;;3.88;;
56075;SDS011;41951;49.022;12.066;2023-07-09T14:20:54;7.63;;;4.07;;
56075;SDS011;41951;49.022;12.066;2023-07-09T14:23:21;6.63;;;3.72;;
56075;SDS011;41951;49.022;12.066;2023-07-09T14:25:47;7.78;;;3.85;;
56075;SDS011;41951;49.022;12.066;2023-07-09T14:28:14;5.78;;;3.70;;
56075;SDS011;41951;49.022;12.066;2023-07-09T14:30:42;5.63;;;4.03;;
56075;SDS011;41951;49.022;12.066;2023-07-09T14:33:14;6.28;;;3.75;;
56075;SDS011;41951;49.022;12.066;2023-07-09T14:35:42;7.10;;;3.80;;
56075;SDS011;41951;49.022;12.066;2023-07-09T14:40:47;5.60;;;3.78;;
56075;SDS011;41951;49.022;12.066;2023-07-09T14:43:15;7.40;;;4.00;;
56075;SDS011;41951;49.022;12.066;2023-07-09T14:45:41;8.70;;;3.90;;
56075;SDS011;41951;49.022;12.066;2023-07-09T14:48:14;6.53;;;3.72;;
56075;SDS011;41951;49.022;12.066;2023-07-09T14:50:44;6.60;;;4.05;;
56075;SDS011;41951;49.022;12.066;2023-07-09T14:53:12;8.10;;;3.78;;
56075;SDS011;41951;49.022;12.066;2023-07-09T14:55:39;6.57;;;3.70;;
56075;SDS011;41951;49.022;12.066;2023-07-09T14:58:16;6.07;;;3.65;;
56075;SDS011;41951;49.022;12.066;2023-07-09T15:00:44;8.15;;;3.92;;
56075;SDS011;41951;49.022;12.066;2023-07-09T15:03:11;5.53;;;3.92;;
56075;SDS011;41951;49.022;12.066;2023-07-09T15:05:52;5.68;;;3.75;;
56075;SDS011;41951;49.022;12.066;2023-07-09T15:08:20;6.78;;;4.00;;
56075;SDS011;41951;49.022;12.066;2023-07-09T15:10:48;7.38;;;3.75;;
56075;SDS011;41951;49.022;12.066;2023-07-09T15:13:19;11.68;;;7.63;;
56075;SDS011;41951;49.022;12.066;2023-07-09T15:15:50;6.13;;;3.65;;
56075;SDS011;41951;49.022;12.066;2023-07-09T15:18:16;6.65;;;3.42;;